Impacts METAR Board
IDs:

KMCO - Orlando Intl, FL, US

Updated at: 2200 UTC 21 May 2022
Potential Impact None Slight Moderate High
Time 21/10Z 21/11Z 21/12Z 21/13Z 21/14Z 21/15Z 21/16Z 21/17Z 21/18Z 21/19Z 21/20Z 21/21Z 21/22Z
Temp71 72 73 76 80 83 87 89 89 90 92 90 85
Dewpt70 70 70 71 74 75 75 74 73 73 73 72 72
Altim30.13 30.15 30.15 30.15 30.17 30.19 30.20 30.19 30.17 30.14 30.12 30.11 30.11
VIS10 10 10 10 10 10 10 10 10 10 10 10 10
CIG200 18 250 250 250 250 250 250 250 250 250 55 48
CoverBKNOVCOVCOVCOVCOVCOVCBKNOVCOVCOVCOVCOVC
FltCatVFRMVFRVFRVFRVFRVFRVFRVFRVFRVFRVFRVFRVFR
WX------------------------TS
WDir708080120140140160150150170170090
WSpd5 6 5 7 7 9 10 11 8 7 7 4 16
WGst-- -- -- -- -- 15 -- -- 15 -- -- -- 26
Raw hourly METARs
KMCO 210953Z 07005KT 10SM BKN200 22/21 A3013 RMK AO2 SLP202 T02170211
KMCO 211053Z 08006KT 10SM BKN018 OVC200 22/21 A3015 RMK AO2 SLP209 T02220211
KMCO 211153Z 08005KT 10SM FEW019 OVC250 23/21 A3015 RMK AO2 SLP208 70098 T02280211 10228 20217 53003
KMCO 211253Z 12007KT 10SM FEW020 OVC250 24/22 A3015 RMK AO2 SLP207 T02440217
KMCO 211353Z 14007KT 10SM FEW016 OVC250 27/23 A3017 RMK AO2 SLP213 T02670233
KMCO 211453Z 14009G15KT 10SM FEW017 OVC250 28/24 A3019 RMK AO2 SLP220 T02830239 53012
KMCO 211553Z 16010KT 10SM FEW024 OVC250 31/24 A3020 RMK AO2 SLP224 T03060239
KMCO 211653Z 15011KT 10SM FEW029 BKN250 32/23 A3019 RMK AO2 SLP220 T03170233
KMCO 211753Z 15008G15KT 10SM FEW032 FEW100 FEW130 OVC250 32/23 A3017 RMK AO2 SLP214 T03170228 10322 20228 58006
KMCO 211853Z 17007KT 10SM SCT035 OVC250 32/23 A3014 RMK AO2 LTG DSNT NE SLP205 CB DSNT NE T03220228
KMCO 211953Z 17007KT 130V190 10SM FEW040 OVC250 33/23 A3012 RMK AO2 SLP198 T03330228
KMCO 212053Z VRB04KT 10SM SCT043 BKN055 OVC250 32/22 A3011 RMK AO2 LTG DSNT SE SLP194 T03220222 56020
KMCO 212153Z 09016G26KT 10SM TS SCT027CB BKN048 OVC250 29/22 A3011 RMK AO2 PK WND 09026/2150 LTG DSNT ALQDS TSE14B18 SLP195 OCNL LTGICCG OHD-NE-SE TS OHD-NE-SE MOV N T02940222



Page loaded:  22:43 UTC  |   03:43 PM Pacific  |   04:43 PM Mountain  |   05:43 PM Central  |   06:43 PM Eastern

 

ADVISORIES

FORECASTS

FORECASTS

OBSERVATIONS

USER TOOLS

ABOUT US